Terminal Aerodrome Forecast
Issued by NWS Dallas/Fort Worth, TX

Home | Current Version | Previous Version | Text Only | Print | Product List | Glossary On
Versions: 1 2 3 4 5 6 7 8 9 10 11 12 13 14 15 16 17 18 19 20 21 22 23 24 25 26 27 28 29 30 31 32 33 34 35 36 37
000
FTUS44 KFWD 271508 AAA
TAFDFW
TAF AMD
KDFW 271508Z 2715/2818 10015KT P6SM BKN015 BKN025
     FM271730 06014KT 6SM -SHRA BR VCTS BKN025 BKN060CB
     FM272200 03012KT 5SM -RA BR BKN015
     FM280000 03010KT P6SM OVC006
     FM281500 04012KT P6SM OVC012=

USA.gov is the U.S. government's official web portal to all federal, state and local government web resources and services.